Queen Elizabeth — ZCEF2 — position and weather

sailwx.info

Track history (hours):
 
Tides and Currents Weather Stations Pressure Air Temp Water Temp Dewpoint Dewpoint Depression Visibility Wind Speed Wind Dir Waves Ship Positions

Queen Elizabeth

Last reported at 2019-Aug-24 06:31 UTC. Time now 2019-Aug-24 06:42 UTC.
Position N 53°38' E 003°38'.

Length 294 m; draft 8 m.

Type: Ship. MMSI: 310625000.

Date/timePositionNaut miles runAvg speedWind from/ knotsBaromVisibWave heightAir tempDewpointWater temp
2019-Aug-24 06:31N 53°38' E 003°38'917.3
2019-Aug-24 06:01N 53°45' E 003°45'918.3
2019-Aug-24 05:30N 53°51' E 003°57'918.2
2019-Aug-24 05:00N 53°56' E 004°10'918.1
2019-Aug-24 04:31N 54°01' E 004°22'917.8
2019-Aug-24 04:00N 54°08' E 004°31'917.8
2019-Aug-24 03:30N 54°16' E 004°39'917.6
2019-Aug-24 03:00N 54°23' E 004°47'8717.4
2019-Aug-23 22:00N 55°36' E 006°12'112.7 200 / 101024.610.8 17.016.218.0
2019-Aug-23 21:53N 55°37' E 006°13'717.4
2019-Aug-23 21:27N 55°43' E 006°21'917.2
2019-Aug-23 20:56N 55°51' E 006°29'817.3
2019-Aug-23 20:30N 55°57' E 006°37'817.1
2019-Aug-23 20:00N 56°04' E 006°45'917.1
2019-Aug-23 19:30N 56°12' E 006°54'817.0
2019-Aug-23 19:00N 56°19' E 007°02'917.0
2019-Aug-23 18:29N 56°26' E 007°11'817.0
2019-Aug-23 18:00N 56°32' E 007°21'917.1
2019-Aug-23 17:30N 56°39' E 007°30'817.1
2019-Aug-23 17:00N 56°46' E 007°38'816.8
2019-Aug-23 16:30N 56°54' E 007°45'916.7
2019-Aug-23 16:00N 57°01' E 007°52'816.6
2019-Aug-23 15:30N 57°08' E 007°60'816.2
2019-Aug-23 15:00N 57°15' E 008°08'816.3
2019-Aug-23 14:30N 57°20' E 008°20'816.1
2019-Aug-23 14:00N 57°25' E 008°32'815.7
2019-Aug-23 13:31N 57°29' E 008°44'815.5
2019-Aug-23 13:00N 57°32' E 008°58'815.5
2019-Aug-23 12:30N 57°36' E 009°10'815.4
2019-Aug-23 12:01N 57°40' E 009°22'815.8
2019-Aug-23 11:29N 57°44' E 009°35'815.7
2019-Aug-23 11:00N 57°49' E 009°47'814.8
2019-Aug-23 10:30N 57°49' E 010°01'918.1
2019-Aug-23 10:00N 57°48' E 010°18'11035.6 250 / 391017.2 5.4 18.016.317.0
2019-Aug-23 09:59N 57°49' E 010°15'715.0
2019-Aug-23 09:30N 57°48' E 010°29'714.6
2019-Aug-23 09:00N 57°48' E 010°43'815.3
2019-Aug-23 08:30N 57°46' E 010°56'816.4
2019-Aug-23 08:01N 57°40' E 011°06'917.1
2019-Aug-23 07:31N 57°34' E 011°18'917.1
2019-Aug-23 07:01N 57°28' E 011°29'816.8
2019-Aug-23 06:31N 57°20' E 011°34'816.9
2019-Aug-23 06:01N 57°12' E 011°37'12685.9
2019-Aug-23 06:00N 57°00' E 011°42'4 7.7 200 / 251023.7 5.4 16.014.318.0
2019-Aug-23 05:30N 57°04' E 011°44'917.3
2019-Aug-23 05:00N 56°55' E 011°49'917.2
2019-Aug-23 04:28N 56°46' E 011°54'1016.5
2019-Aug-23 03:53N 56°37' E 011°47'617.1
2019-Aug-23 03:30N 56°32' E 011°41'1817.0
2019-Aug-23 02:25N 56°16' E 011°24'1615.3
2019-Aug-23 01:22N 56°03' E 011°08'1016.2
2019-Aug-23 00:46N 55°55' E 010°57'516.6
2019-Aug-23 00:29N 55°51' E 010°52'2915.7
2019-Aug-22 22:37N 55°23' E 011°02'217.2
2019-Aug-22 22:30N 55°21' E 011°02'815.8
2019-Aug-22 22:00N 55°13' E 011°06'713.2
2019-Aug-22 21:30N 55°07' E 011°03'816.4
2019-Aug-22 21:00N 54°59' E 010°60'816.3
2019-Aug-22 20:30N 54°52' E 010°53'815.5
2019-Aug-22 20:00N 54°44' E 010°53'510.7
2019-Aug-22 19:30N 54°40' E 010°59'713.7
2019-Aug-22 19:00N 54°37' E 011°10'714.0
2019-Aug-22 18:30N 54°33' E 011°20'714.9
2019-Aug-22 18:00N 54°30' E 011°32'815.1
2019-Aug-22 17:30N 54°27' E 011°44'714.3
2019-Aug-22 17:00N 54°23' E 011°54'713.6
2019-Aug-22 16:30N 54°18' E 012°03'612.6
2019-Aug-22 16:00N 54°12' E 012°05'2 1.3
2019-Aug-22 14:30N 54°10' E 012°06'0 0.0
2019-Aug-22 13:54N 54°10' E 012°06'0 0.0
2019-Aug-22 11:54N 54°10' E 012°06'0 0.0
2019-Aug-22 11:12N 54°10' E 012°06'0 0.0
2019-Aug-22 11:00N 54°10' E 012°06'0 0.0
2019-Aug-22 10:27N 54°10' E 012°06'0 0.0
2019-Aug-22 10:00N 54°10' E 012°06'0 0.0
2019-Aug-22 09:30N 54°10' E 012°06'0 0.0
2019-Aug-22 09:00N 54°10' E 012°06'0 0.0
2019-Aug-22 08:30N 54°10' E 012°06'0 0.0
2019-Aug-22 07:06N 54°10' E 012°06'0 0.0
2019-Aug-22 07:00N 54°10' E 012°06'0 0.1
2019-Aug-22 06:12N 54°10' E 012°06'0 0.8
2019-Aug-22 06:00N 54°10' E 012°06'4863.0
2019-Aug-22 06:00N 54°06' E 012°06'4 9.0 160 / 71031.910.8 19.013.819.0
2019-Aug-22 05:30N 54°10' E 012°06'4 8.6
2019-Aug-22 05:00N 54°14' E 012°02'611.6
2019-Aug-22 04:29N 54°20' E 011°59'612.1
2019-Aug-22 04:00N 54°26' E 011°57'713.1
2019-Aug-22 03:31N 54°26' E 012°08'714.2
2019-Aug-22 03:00N 54°33' E 012°12'714.0
2019-Aug-22 02:31N 54°39' E 012°19'713.7
2019-Aug-22 02:00N 54°42' E 012°29'813.9
2019-Aug-22 01:27N 54°46' E 012°40'5315.3
2019-Aug-21 22:00N 55°06' E 014°06'3212.3 260 / 91028.010.8 18.012.720.0
2019-Aug-21 19:25N 55°29' E 014°43'614.2
2019-Aug-21 19:00N 55°32' E 014°53'814.2
2019-Aug-21 18:27N 55°35' E 015°05'614.1
2019-Aug-21 18:01N 55°38' E 015°15'714.7
2019-Aug-21 17:30N 55°42' E 015°26'714.9
2019-Aug-21 17:00N 55°46' E 015°37'4268.9
2019-Aug-21 17:00N 55°42' E 015°36'1121.8 290 / 151029.310.8 17.013.520.0
2019-Aug-21 16:31N 55°50' E 015°49'714.7
2019-Aug-21 16:00N 55°53' E 016°00'714.6
2019-Aug-21 15:30N 55°56' E 016°12'714.3
2019-Aug-21 15:01N 55°60' E 016°23'714.2
2019-Aug-21 14:31N 56°04' E 016°34'714.0
2019-Aug-21 14:00N 56°08' E 016°44'714.0
2019-Aug-21 13:30N 56°14' E 016°49'714.1
2019-Aug-21 13:00N 56°21' E 016°53'713.6
2019-Aug-21 12:30N 56°27' E 016°57'713.5
2019-Aug-21 12:00N 56°34' E 017°01'2813.8
2019-Aug-21 10:01N 56°60' E 017°19'013.6
2019-Aug-21 10:00N 56°60' E 017°19'034.4
2019-Aug-21 10:00N 57°00' E 017°18'1814.2 230 / 91023.310.8 17.013.518.0
2019-Aug-21 08:43N 57°17' E 017°32'414.3
2019-Aug-21 08:28N 57°20' E 017°35'714.4
2019-Aug-21 08:00N 57°26' E 017°39'2214.5
2019-Aug-21 06:30N 57°46' E 017°54'814.6
2019-Aug-21 05:57N 57°53' E 018°01'714.6
2019-Aug-21 05:30N 57°59' E 018°06'1 1.3
2019-Aug-21 05:00N 58°00' E 018°06'7317.3 270 / 101025.7 5.4 16.014.319.0
2019-Aug-21 04:58N 58°06' E 018°13'714.9
2019-Aug-21 04:30N 58°13' E 018°19'814.8
2019-Aug-21 03:58N 58°20' E 018°26'714.8
2019-Aug-21 03:30N 58°25' E 018°34'814.6
2019-Aug-21 02:58N 58°31' E 018°44'714.6
2019-Aug-21 02:29N 58°36' E 018°53'714.7
2019-Aug-21 01:59N 58°42' E 019°02'814.6
2019-Aug-21 01:24N 58°48' E 019°12'614.4
2019-Aug-21 00:59N 58°53' E 019°19'714.4
2019-Aug-21 00:31N 58°58' E 019°28'714.2
2019-Aug-21 00:00N 59°04' E 019°36'714.3
2019-Aug-20 23:30N 59°10' E 019°43'914.3
2019-Aug-20 22:55N 59°17' E 019°52'613.9
2019-Aug-20 22:28N 59°23' E 019°55'1213.5
2019-Aug-20 21:34N 59°35' E 019°58'414.4
2019-Aug-20 21:18N 59°39' E 019°54'714.5
2019-Aug-20 20:48N 59°44' E 019°45'713.8
2019-Aug-20 20:16N 59°47' E 019°31'414.3
2019-Aug-20 20:00N 59°46' E 019°23'916.3
2019-Aug-20 19:25N 59°43' E 019°06'614.7
2019-Aug-20 19:00N 59°40' E 018°56'510.9
2019-Aug-20 18:30N 59°36' E 018°47'611.8
2019-Aug-20 18:00N 59°33' E 018°37'5 9.8
2019-Aug-20 17:30N 59°31' E 018°29'511.1
2019-Aug-20 17:00N 59°26' E 018°23'5 9.6
2019-Aug-20 16:30N 59°21' E 018°26'510.1
2019-Aug-20 16:00N 59°22' E 018°16'4 8.2
2019-Aug-20 15:30N 59°21' E 018°08'0 0.6
2019-Aug-20 14:58N 59°21' E 018°08'0 0.0
2019-Aug-20 14:28N 59°21' E 018°08'0 0.0
2019-Aug-20 13:58N 59°21' E 018°08'0 0.0
2019-Aug-20 13:28N 59°21' E 018°08'0 0.0
2019-Aug-20 12:58N 59°21' E 018°08'0 0.0
2019-Aug-20 12:28N 59°21' E 018°08'0 0.0
2019-Aug-20 11:58N 59°21' E 018°08'0 0.0
2019-Aug-20 11:25N 59°21' E 018°08'0 0.0
2019-Aug-20 10:58N 59°21' E 018°08'0 0.0
2019-Aug-20 10:28N 59°21' E 018°08'0 0.0
2019-Aug-20 09:58N 59°21' E 018°08'0 0.0
2019-Aug-20 09:28N 59°21' E 018°08'0 0.0
2019-Aug-20 08:58N 59°21' E 018°08'0 0.0
2019-Aug-20 08:28N 59°21' E 018°08'0 0.0
2019-Aug-20 07:58N 59°21' E 018°08'0 0.0
2019-Aug-20 07:28N 59°21' E 018°08'0 0.0
2019-Aug-20 06:58N 59°21' E 018°08'0 0.0
2019-Aug-20 06:28N 59°21' E 018°08'3 5.8
2019-Aug-20 06:00N 59°18' E 018°06'3138.4 200 / 101018.8 5.4 15.013.216.0
2019-Aug-20 05:58N 59°21' E 018°08'1 1.5
2019-Aug-20 05:30N 59°21' E 018°09'5 9.2
2019-Aug-20 05:00N 59°22' E 018°17'510.0
2019-Aug-20 04:31N 59°22' E 018°27'5 9.9
2019-Aug-20 04:00N 59°26' E 018°24'611.2
2019-Aug-20 03:30N 59°31' E 018°30'5 9.9
2019-Aug-20 03:00N 59°34' E 018°38'612.0
2019-Aug-20 02:30N 59°37' E 018°48'510.4
2019-Aug-20 02:00N 59°40' E 018°56'816.0
2019-Aug-20 01:30N 59°44' E 019°10'714.9
2019-Aug-20 01:00N 59°47' E 019°24'815.2
2019-Aug-20 00:30N 59°48' E 019°39'917.2
2019-Aug-20 00:00N 59°44' E 019°54'917.5
2019-Aug-19 23:30N 59°38' E 020°07'2217.7
2019-Aug-19 22:16N 59°35' E 020°49'518.1
2019-Aug-19 22:00N 59°34' E 020°58'918.2
2019-Aug-19 21:30N 59°32' E 021°16'918.2
2019-Aug-19 21:00N 59°31' E 021°34'184.4
2019-Aug-19 21:00N 59°30' E 021°36'816.0 220 / 231011.810.8 17.014.419.0
2019-Aug-19 20:30N 59°29' E 021°51'918.0
2019-Aug-19 20:00N 59°27' E 022°09'816.9
2019-Aug-19 19:30N 59°30' E 022°25'917.3
2019-Aug-19 19:00N 59°33' E 022°40'917.7
2019-Aug-19 18:30N 59°35' E 022°57'917.8
2019-Aug-19 18:00N 59°38' E 023°14'917.9
2019-Aug-19 17:30N 59°40' E 023°31'917.4
2019-Aug-19 17:00N 59°42' E 023°48'917.4
2019-Aug-19 16:30N 59°45' E 024°05'917.8
2019-Aug-19 16:00N 59°47' E 024°21'7422.9
2019-Aug-19 16:00N 59°42' E 024°12'1531.7 250 / 311013.7 5.4 16.012.418.0
2019-Aug-19 15:30N 59°50' E 024°38'917.8
2019-Aug-19 15:00N 59°57' E 024°48'612.5
2019-Aug-19 14:30N 60°03' E 024°54'611.5
2019-Aug-19 14:00N 60°09' E 024°55'0 0.3
2019-Aug-19 13:28N 60°09' E 024°55'0 0.0
2019-Aug-19 12:58N 60°09' E 024°55'0 0.0
2019-Aug-19 12:28N 60°09' E 024°55'0 0.0
2019-Aug-19 11:58N 60°09' E 024°55'0 0.0
2019-Aug-19 09:37N 60°09' E 024°55'0 0.0
2019-Aug-19 09:28N 60°09' E 024°55'0 0.0
2019-Aug-19 08:58N 60°09' E 024°55'0 0.0
2019-Aug-19 08:28N 60°09' E 024°55'0 0.0
2019-Aug-19 07:58N 60°09' E 024°55'0 0.0
2019-Aug-19 07:28N 60°09' E 024°55'0 0.0
2019-Aug-19 06:58N 60°09' E 024°55'0 0.0
2019-Aug-19 06:28N 60°09' E 024°55'0 0.0
2019-Aug-19 05:58N 60°09' E 024°55'0 0.0
2019-Aug-19 05:28N 60°09' E 024°55'3 6.1
2019-Aug-19 05:00N 60°06' E 024°54'3111.7 160 / 171009.8 5.4 17.013.517.0
2019-Aug-19 04:58N 60°09' E 024°55'0 0.0
2019-Aug-19 04:28N 60°09' E 024°55'0 0.0
2019-Aug-19 04:00N 60°09' E 024°55'1 1.1
2019-Aug-19 03:30N 60°09' E 024°54'713.1
2019-Aug-19 03:01N 60°02' E 024°55'611.0
2019-Aug-19 02:31N 59°57' E 024°56'611.8
2019-Aug-19 02:01N 59°52' E 025°05'816.2
2019-Aug-19 01:31N 59°54' E 025°21'816.2
2019-Aug-19 01:01N 59°55' E 025°37'156.7
2019-Aug-19 01:00N 59°54' E 025°36'918.1 170 / 281007.6 18.018.018.0
2019-Aug-19 00:30N 59°57' E 025°53'816.2
2019-Aug-19 00:00N 59°58' E 026°08'816.2
2019-Aug-18 23:31N 60°00' E 026°24'816.1
2019-Aug-18 23:01N 60°01' E 026°40'816.5
2019-Aug-18 22:30N 59°60' E 026°57'815.6
2019-Aug-18 22:01N 60°02' E 027°11'816.6
2019-Aug-18 21:31N 60°07' E 027°25'816.5
2019-Aug-18 21:00N 60°11' E 027°40'815.6
2019-Aug-18 20:31N 60°11' E 027°55'816.7
2019-Aug-18 20:01N 60°09' E 028°12'12723.3
2019-Aug-18 20:00N 60°06' E 027°48'1938.7 130 / 181011.910.8 18.014.618.0
2019-Aug-18 19:31N 60°05' E 028°25'816.2
2019-Aug-18 19:01N 60°03' E 028°41'816.5
2019-Aug-18 18:31N 60°02' E 028°58'916.8
2019-Aug-18 17:59N 60°02' E 029°15'713.6
2019-Aug-18 17:30N 60°02' E 029°29'611.8
2019-Aug-18 17:00N 59°60' E 029°40'5 9.5
2019-Aug-18 16:30N 59°58' E 029°48'510.7
2019-Aug-18 16:00N 59°56' E 029°58'5390.3
2019-Aug-18 16:00N 59°54' E 029°48'1020.6 060 / 121013.6 5.4 21.014.219.0
2019-Aug-18 15:30N 59°57' E 030°07'2 4.3
2019-Aug-18 15:00N 59°57' E 030°11'0 0.0
2019-Aug-18 14:29N 59°57' E 030°11'0 0.0
2019-Aug-18 13:59N 59°57' E 030°11'0 0.0
2019-Aug-18 13:29N 59°57' E 030°11'0 0.0
2019-Aug-18 12:59N 59°57' E 030°11'0 0.0
2019-Aug-18 12:29N 59°57' E 030°11'0 0.0
2019-Aug-18 11:59N 59°57' E 030°11'0 0.0
2019-Aug-18 11:29N 59°57' E 030°11'0 0.0
2019-Aug-18 10:59N 59°57' E 030°11'0 0.0
2019-Aug-18 10:29N 59°57' E 030°11'0 0.0
2019-Aug-18 09:59N 59°57' E 030°11'0 0.0
2019-Aug-18 09:29N 59°57' E 030°11'0 0.0
2019-Aug-18 08:59N 59°57' E 030°11'0 0.0
2019-Aug-18 08:29N 59°57' E 030°11'0 0.0
2019-Aug-18 07:59N 59°57' E 030°11'0 0.0
2019-Aug-18 06:59N 59°57' E 030°11'0 0.0
2019-Aug-18 06:29N 59°57' E 030°11'0 0.0
2019-Aug-18 05:59N 59°57' E 030°11'0 0.0
2019-Aug-18 05:29N 59°57' E 030°11'0 0.0
2019-Aug-18 04:59N 59°57' E 030°11'0 0.0
2019-Aug-18 04:29N 59°57' E 030°11'4 7.8
2019-Aug-18 04:00N 59°54' E 030°06'4576.6 180 / 31016.410.8 15.0 9.218.0
2019-Aug-18 03:59N 59°57' E 030°11'0 0.0
2019-Aug-18 03:29N 59°57' E 030°11'0 0.0
2019-Aug-18 02:59N 59°57' E 030°11'0 0.0
2019-Aug-18 02:29N 59°57' E 030°11'0 0.0
2019-Aug-18 01:59N 59°57' E 030°11'0 0.0
2019-Aug-18 01:29N 59°57' E 030°11'0 0.0
2019-Aug-18 00:59N 59°57' E 030°11'0 0.0
2019-Aug-18 00:29N 59°57' E 030°11'0 0.0
2019-Aug-17 23:59N 59°57' E 030°11'0 0.0
2019-Aug-17 23:29N 59°57' E 030°11'0 0.0
2019-Aug-17 22:59N 59°57' E 030°11'0 0.0
2019-Aug-17 22:29N 59°57' E 030°11'0 0.0
2019-Aug-17 21:59N 59°57' E 030°11'0 0.0
2019-Aug-17 21:29N 59°57' E 030°11'0 0.0
2019-Aug-17 20:59N 59°57' E 030°11'0 0.0
2019-Aug-17 20:29N 59°57' E 030°11'0 0.0
2019-Aug-17 19:59N 59°57' E 030°11'0 0.0
2019-Aug-17 19:29N 59°57' E 030°11'0 0.0
2019-Aug-17 18:59N 59°57' E 030°11'0 0.0
2019-Aug-17 18:29N 59°57' E 030°11'0 0.0
2019-Aug-17 17:29N 59°57' E 030°11'0 0.0
2019-Aug-17 16:59N 59°57' E 030°11'0 0.0
2019-Aug-17 16:29N 59°57' E 030°11'0 0.0
2019-Aug-17 15:59N 59°57' E 030°11'0 0.0
2019-Aug-17 15:29N 59°57' E 030°11'0 0.0
2019-Aug-17 14:59N 59°57' E 030°11'0 0.0
2019-Aug-17 14:29N 59°57' E 030°11'0 0.0
2019-Aug-17 13:59N 59°57' E 030°11'0 0.0
2019-Aug-17 13:29N 59°57' E 030°11'0 0.0
2019-Aug-17 12:59N 59°57' E 030°11'0 0.0
2019-Aug-17 12:29N 59°57' E 030°11'0 0.0
2019-Aug-17 11:59N 59°57' E 030°11'0 0.0
2019-Aug-17 11:29N 59°57' E 030°11'0 0.0
2019-Aug-17 10:59N 59°57' E 030°11'0 0.0
2019-Aug-17 10:29N 59°57' E 030°11'0 0.0
2019-Aug-17 09:59N 59°57' E 030°11'0 0.0
2019-Aug-17 09:29N 59°57' E 030°11'0 0.0
2019-Aug-17 08:59N 59°57' E 030°11'0 0.0
2019-Aug-17 08:29N 59°57' E 030°11'0 0.0
2019-Aug-17 07:59N 59°57' E 030°11'0 0.0
2019-Aug-17 07:29N 59°57' E 030°11'0 0.0
2019-Aug-17 06:59N 59°57' E 030°11'0 0.0
2019-Aug-17 06:29N 59°57' E 030°11'0 0.0
2019-Aug-17 05:59N 59°57' E 030°11'0 0.0
2019-Aug-17 05:29N 59°57' E 030°11'0 0.0
2019-Aug-17 04:59N 59°57' E 030°11'0 0.0
2019-Aug-17 04:29N 59°57' E 030°11'0 0.0
2019-Aug-17 03:59N 59°57' E 030°11'0 0.0
2019-Aug-17 03:30N 59°57' E 030°11'2 4.0
2019-Aug-17 03:00N 59°57' E 030°08'5 9.5
2019-Aug-17 02:30N 59°56' E 029°58'510.4
2019-Aug-17 02:00N 59°58' E 029°49'4 8.2
2019-Aug-17 01:30N 59°60' E 029°41'611.8
2019-Aug-17 00:58N 60°01' E 029°29'510.3
2019-Aug-17 00:30N 60°02' E 029°20'714.1
2019-Aug-17 00:00N 60°02' E 029°06'714.8
2019-Aug-16 23:31N 60°02' E 028°51'815.8
2019-Aug-16 23:00N 60°02' E 028°35'714.9
2019-Aug-16 22:31N 60°05' E 028°21'815.0
2019-Aug-16 22:00N 60°08' E 028°08'815.1
2019-Aug-16 21:30N 60°10' E 027°53'713.4
2019-Aug-16 21:01N 60°09' E 027°40'6338.4
2019-Aug-16 21:00N 60°06' E 027°30'1 2.9 1016.810.8 17.013.518.0
2019-Aug-16 20:30N 60°05' E 027°28'714.0
2019-Aug-16 20:00N 60°02' E 027°16'714.0
2019-Aug-16 19:30N 59°58' E 027°03'713.5
2019-Aug-16 19:00N 59°59' E 026°50'713.7
2019-Aug-16 18:30N 59°59' E 026°36'713.8
2019-Aug-16 18:00N 59°57' E 026°23'814.1
2019-Aug-16 17:28N 59°55' E 026°08'714.1
2019-Aug-16 17:00N 59°53' E 025°56'714.2
2019-Aug-16 16:31N 59°51' E 025°42'714.3
2019-Aug-16 16:00N 59°50' E 025°28'714.5
2019-Aug-16 15:30N 59°48' E 025°14'714.3
2019-Aug-16 15:00N 59°47' E 025°00'714.3
2019-Aug-16 14:31N 59°45' E 024°47'714.5
2019-Aug-16 14:00N 59°44' E 024°32'714.5
2019-Aug-16 13:30N 59°42' E 024°19'714.5
2019-Aug-16 13:00N 59°39' E 024°05'714.5
2019-Aug-16 12:31N 59°37' E 023°52'714.7
2019-Aug-16 12:00N 59°35' E 023°38'5334.5
2019-Aug-16 12:00N 59°30' E 023°42'1020.2 200 / 191014.8 18.016.315.0
2019-Aug-16 11:30N 59°33' E 023°24'714.7
2019-Aug-16 11:00N 59°31' E 023°10'714.4
2019-Aug-16 10:30N 59°29' E 022°56'714.4
2019-Aug-16 10:00N 59°27' E 022°43'714.3
2019-Aug-16 09:30N 59°23' E 022°30'714.6
2019-Aug-16 09:01N 59°19' E 022°19'10578.4
2019-Aug-16 09:00N 59°12' E 022°06'3 5.2 170 / 191014.810.8 17.013.518.0
2019-Aug-16 08:31N 59°14' E 022°08'714.7
2019-Aug-16 08:00N 59°10' E 021°57'714.8
2019-Aug-16 07:30N 59°05' E 021°45'1014.9
2019-Aug-16 06:51N 58°57' E 021°34'914.9
2019-Aug-16 06:15N 58°51' E 021°22'19015.4
2019-Aug-15 17:51N 56°24' E 017°36'617.9
2019-Aug-15 17:30N 56°20' E 017°27'917.9
2019-Aug-15 17:00N 56°14' E 017°14'917.7
2019-Aug-15 16:31N 56°09' E 017°02'917.4
2019-Aug-15 16:01N 56°04' E 016°49'4261.1
2019-Aug-15 16:00N 56°00' E 016°48'714.9 180 / 191012.7 5.4 19.015.619.0
2019-Aug-15 15:30N 55°60' E 016°35'917.8
2019-Aug-15 15:00N 55°55' E 016°22'918.0
2019-Aug-15 14:30N 55°50' E 016°08'917.9
2019-Aug-15 14:00N 55°45' E 015°55'918.1
2019-Aug-15 13:30N 55°40' E 015°41'918.1
2019-Aug-15 13:01N 55°36' E 015°27'918.2
2019-Aug-15 12:30N 55°32' E 015°13'918.3
2019-Aug-15 12:00N 55°28' E 014°58'1218.0
2019-Aug-15 11:19N 55°22' E 014°39'818.1
2019-Aug-15 10:52N 55°16' E 014°30'1318.2
2019-Aug-15 10:08N 55°06' E 014°15'4318.0
2019-Aug-15 07:44N 54°50' E 013°05'418.1
2019-Aug-15 07:30N 54°48' E 012°58'918.0
2019-Aug-15 07:01N 54°45' E 012°43'918.2
2019-Aug-15 06:30N 54°40' E 012°30'918.1
2019-Aug-15 06:00N 54°34' E 012°18'918.6
2019-Aug-15 05:30N 54°26' E 012°12'917.6
2019-Aug-15 05:00N 54°23' E 011°57'2169.8
2019-Aug-15 05:00N 54°24' E 011°54'714.7 190 / 201011.3 5.4 18.012.719.0
2019-Aug-15 04:31N 54°26' E 011°42'918.6
2019-Aug-15 04:00N 54°30' E 011°28'917.9
2019-Aug-15 03:31N 54°34' E 011°14'917.7
2019-Aug-15 03:01N 54°38' E 011°01'815.3
2019-Aug-15 02:30N 54°44' E 010°52'713.3
2019-Aug-15 02:00N 54°51' E 010°52'816.7
2019-Aug-15 01:31N 54°58' E 010°58'917.7
2019-Aug-15 01:01N 55°07' E 011°02'815.3
2019-Aug-15 00:30N 55°14' E 011°06'6412.2
2019-Aug-14 19:14N 56°10' E 011°59'416.9
2019-Aug-14 18:59N 56°11' E 012°06'816.1
2019-Aug-14 18:30N 56°12' E 012°20'816.0
2019-Aug-14 18:00N 56°07' E 012°32'815.1
2019-Aug-14 17:30N 56°01' E 012°41'815.1
2019-Aug-14 17:01N 55°54' E 012°39'2107.3
2019-Aug-14 17:00N 55°54' E 012°36'817.4 280 / 161012.7 5.4 18.010.619.0
2019-Aug-14 16:30N 55°46' E 012°42'510.5
2019-Aug-14 16:00N 55°42' E 012°36'0 0.6
2019-Aug-14 15:30N 55°42' E 012°36'0 0.0
2019-Aug-14 15:00N 55°42' E 012°36'0 0.0
2019-Aug-14 14:30N 55°42' E 012°36'0 0.0
2019-Aug-14 14:00N 55°42' E 012°36'0 0.0
2019-Aug-14 13:30N 55°42' E 012°36'0 0.0
2019-Aug-14 13:00N 55°42' E 012°36'0 0.0
2019-Aug-14 12:30N 55°42' E 012°36'0 0.0
2019-Aug-14 12:00N 55°42' E 012°36'0 0.0
2019-Aug-14 11:30N 55°42' E 012°36'0 0.0
2019-Aug-14 11:00N 55°42' E 012°36'0 0.0
2019-Aug-14 10:30N 55°42' E 012°36'0 0.0
2019-Aug-14 10:00N 55°42' E 012°36'0 0.0
2019-Aug-14 09:30N 55°42' E 012°36'0 0.0
2019-Aug-14 09:00N 55°42' E 012°36'0 0.0
2019-Aug-14 08:30N 55°42' E 012°36'0 0.0
2019-Aug-14 08:00N 55°42' E 012°36'0 0.0
2019-Aug-14 07:30N 55°42' E 012°36'0 0.0
2019-Aug-14 07:00N 55°42' E 012°36'  
Track history (hours):
 
Tides and Currents Weather Stations Pressure Air Temp Water Temp Dewpoint Dewpoint Depression Visibility Wind Speed Wind Dir Waves Ship Positions

Queen Elizabeth

Last reported at 2019-Aug-24 06:31 UTC. Time now 2019-Aug-24 06:42 UTC.
Position N 53°38' E 003°38'.

Length 294 m; draft 8 m.

Type: Ship. MMSI: 310625000.

Date/timePositionNaut miles runAvg speedWind from/ knotsBaromVisibWave heightAir tempDewpointWater temp
2019-Aug-24 06:31N 53°38' E 003°38'917.3
2019-Aug-24 06:01N 53°45' E 003°45'918.3
2019-Aug-24 05:30N 53°51' E 003°57'918.2
2019-Aug-24 05:00N 53°56' E 004°10'918.1
2019-Aug-24 04:31N 54°01' E 004°22'917.8
2019-Aug-24 04:00N 54°08' E 004°31'917.8
2019-Aug-24 03:30N 54°16' E 004°39'917.6
2019-Aug-24 03:00N 54°23' E 004°47'8717.4
2019-Aug-23 22:00N 55°36' E 006°12'112.7 200 / 101024.610.8 17.016.218.0
2019-Aug-23 21:53N 55°37' E 006°13'717.4
2019-Aug-23 21:27N 55°43' E 006°21'917.2
2019-Aug-23 20:56N 55°51' E 006°29'817.3
2019-Aug-23 20:30N 55°57' E 006°37'817.1
2019-Aug-23 20:00N 56°04' E 006°45'917.1
2019-Aug-23 19:30N 56°12' E 006°54'817.0
2019-Aug-23 19:00N 56°19' E 007°02'917.0
2019-Aug-23 18:29N 56°26' E 007°11'817.0
2019-Aug-23 18:00N 56°32' E 007°21'917.1
2019-Aug-23 17:30N 56°39' E 007°30'817.1
2019-Aug-23 17:00N 56°46' E 007°38'816.8
2019-Aug-23 16:30N 56°54' E 007°45'916.7
2019-Aug-23 16:00N 57°01' E 007°52'816.6
2019-Aug-23 15:30N 57°08' E 007°60'816.2
2019-Aug-23 15:00N 57°15' E 008°08'816.3
2019-Aug-23 14:30N 57°20' E 008°20'816.1
2019-Aug-23 14:00N 57°25' E 008°32'815.7
2019-Aug-23 13:31N 57°29' E 008°44'815.5
2019-Aug-23 13:00N 57°32' E 008°58'815.5
2019-Aug-23 12:30N 57°36' E 009°10'815.4
2019-Aug-23 12:01N 57°40' E 009°22'815.8
2019-Aug-23 11:29N 57°44' E 009°35'815.7
2019-Aug-23 11:00N 57°49' E 009°47'814.8
2019-Aug-23 10:30N 57°49' E 010°01'918.1
2019-Aug-23 10:00N 57°48' E 010°18'11035.6 250 / 391017.2 5.4 18.016.317.0
2019-Aug-23 09:59N 57°49' E 010°15'715.0
2019-Aug-23 09:30N 57°48' E 010°29'714.6
2019-Aug-23 09:00N 57°48' E 010°43'815.3
2019-Aug-23 08:30N 57°46' E 010°56'816.4
2019-Aug-23 08:01N 57°40' E 011°06'917.1
2019-Aug-23 07:31N 57°34' E 011°18'917.1
2019-Aug-23 07:01N 57°28' E 011°29'816.8
2019-Aug-23 06:31N 57°20' E 011°34'816.9
2019-Aug-23 06:01N 57°12' E 011°37'12685.9
2019-Aug-23 06:00N 57°00' E 011°42'4 7.7 200 / 251023.7 5.4 16.014.318.0
2019-Aug-23 05:30N 57°04' E 011°44'917.3
2019-Aug-23 05:00N 56°55' E 011°49'917.2
2019-Aug-23 04:28N 56°46' E 011°54'1016.5
2019-Aug-23 03:53N 56°37' E 011°47'617.1
2019-Aug-23 03:30N 56°32' E 011°41'1817.0
2019-Aug-23 02:25N 56°16' E 011°24'1615.3
2019-Aug-23 01:22N 56°03' E 011°08'1016.2
2019-Aug-23 00:46N 55°55' E 010°57'516.6
2019-Aug-23 00:29N 55°51' E 010°52'2915.7
2019-Aug-22 22:37N 55°23' E 011°02'217.2
2019-Aug-22 22:30N 55°21' E 011°02'815.8
2019-Aug-22 22:00N 55°13' E 011°06'713.2
2019-Aug-22 21:30N 55°07' E 011°03'816.4
2019-Aug-22 21:00N 54°59' E 010°60'816.3
2019-Aug-22 20:30N 54°52' E 010°53'815.5
2019-Aug-22 20:00N 54°44' E 010°53'510.7
2019-Aug-22 19:30N 54°40' E 010°59'713.7
2019-Aug-22 19:00N 54°37' E 011°10'714.0
2019-Aug-22 18:30N 54°33' E 011°20'714.9
2019-Aug-22 18:00N 54°30' E 011°32'815.1
2019-Aug-22 17:30N 54°27' E 011°44'714.3
2019-Aug-22 17:00N 54°23' E 011°54'713.6
2019-Aug-22 16:30N 54°18' E 012°03'612.6
2019-Aug-22 16:00N 54°12' E 012°05'2 1.3
2019-Aug-22 14:30N 54°10' E 012°06'0 0.0
2019-Aug-22 13:54N 54°10' E 012°06'0 0.0
2019-Aug-22 11:54N 54°10' E 012°06'0 0.0
2019-Aug-22 11:12N 54°10' E 012°06'0 0.0
2019-Aug-22 11:00N 54°10' E 012°06'0 0.0
2019-Aug-22 10:27N 54°10' E 012°06'0 0.0
2019-Aug-22 10:00N 54°10' E 012°06'0 0.0
2019-Aug-22 09:30N 54°10' E 012°06'0 0.0
2019-Aug-22 09:00N 54°10' E 012°06'0 0.0
2019-Aug-22 08:30N 54°10' E 012°06'0 0.0
2019-Aug-22 07:06N 54°10' E 012°06'0 0.0
2019-Aug-22 07:00N 54°10' E 012°06'0 0.1
2019-Aug-22 06:12N 54°10' E 012°06'0 0.8
2019-Aug-22 06:00N 54°10' E 012°06'4863.0
2019-Aug-22 06:00N 54°06' E 012°06'4 9.0 160 / 71031.910.8 19.013.819.0
2019-Aug-22 05:30N 54°10' E 012°06'4 8.6
2019-Aug-22 05:00N 54°14' E 012°02'611.6
2019-Aug-22 04:29N 54°20' E 011°59'612.1
2019-Aug-22 04:00N 54°26' E 011°57'713.1
2019-Aug-22 03:31N 54°26' E 012°08'714.2
2019-Aug-22 03:00N 54°33' E 012°12'714.0
2019-Aug-22 02:31N 54°39' E 012°19'713.7
2019-Aug-22 02:00N 54°42' E 012°29'813.9
2019-Aug-22 01:27N 54°46' E 012°40'5315.3
2019-Aug-21 22:00N 55°06' E 014°06'3212.3 260 / 91028.010.8 18.012.720.0
2019-Aug-21 19:25N 55°29' E 014°43'614.2
2019-Aug-21 19:00N 55°32' E 014°53'814.2
2019-Aug-21 18:27N 55°35' E 015°05'614.1
2019-Aug-21 18:01N 55°38' E 015°15'714.7
2019-Aug-21 17:30N 55°42' E 015°26'714.9
2019-Aug-21 17:00N 55°46' E 015°37'4268.9
2019-Aug-21 17:00N 55°42' E 015°36'1121.8 290 / 151029.310.8 17.013.520.0
2019-Aug-21 16:31N 55°50' E 015°49'714.7
2019-Aug-21 16:00N 55°53' E 016°00'714.6
2019-Aug-21 15:30N 55°56' E 016°12'714.3
2019-Aug-21 15:01N 55°60' E 016°23'714.2
2019-Aug-21 14:31N 56°04' E 016°34'714.0
2019-Aug-21 14:00N 56°08' E 016°44'714.0
2019-Aug-21 13:30N 56°14' E 016°49'714.1
2019-Aug-21 13:00N 56°21' E 016°53'713.6
2019-Aug-21 12:30N 56°27' E 016°57'713.5
2019-Aug-21 12:00N 56°34' E 017°01'2813.8
2019-Aug-21 10:01N 56°60' E 017°19'013.6
2019-Aug-21 10:00N 56°60' E 017°19'034.4
2019-Aug-21 10:00N 57°00' E 017°18'1814.2 230 / 91023.310.8 17.013.518.0
2019-Aug-21 08:43N 57°17' E 017°32'414.3
2019-Aug-21 08:28N 57°20' E 017°35'714.4
2019-Aug-21 08:00N 57°26' E 017°39'2214.5
2019-Aug-21 06:30N 57°46' E 017°54'814.6
2019-Aug-21 05:57N 57°53' E 018°01'714.6
2019-Aug-21 05:30N 57°59' E 018°06'1 1.3
2019-Aug-21 05:00N 58°00' E 018°06'7317.3 270 / 101025.7 5.4 16.014.319.0
2019-Aug-21 04:58N 58°06' E 018°13'714.9
2019-Aug-21 04:30N 58°13' E 018°19'814.8
2019-Aug-21 03:58N 58°20' E 018°26'714.8
2019-Aug-21 03:30N 58°25' E 018°34'814.6
2019-Aug-21 02:58N 58°31' E 018°44'714.6
2019-Aug-21 02:29N 58°36' E 018°53'714.7
2019-Aug-21 01:59N 58°42' E 019°02'814.6
2019-Aug-21 01:24N 58°48' E 019°12'614.4
2019-Aug-21 00:59N 58°53' E 019°19'714.4
2019-Aug-21 00:31N 58°58' E 019°28'714.2
2019-Aug-21 00:00N 59°04' E 019°36'714.3
2019-Aug-20 23:30N 59°10' E 019°43'914.3
2019-Aug-20 22:55N 59°17' E 019°52'613.9
2019-Aug-20 22:28N 59°23' E 019°55'1213.5
2019-Aug-20 21:34N 59°35' E 019°58'414.4
2019-Aug-20 21:18N 59°39' E 019°54'714.5
2019-Aug-20 20:48N 59°44' E 019°45'713.8
2019-Aug-20 20:16N 59°47' E 019°31'414.3
2019-Aug-20 20:00N 59°46' E 019°23'916.3
2019-Aug-20 19:25N 59°43' E 019°06'614.7
2019-Aug-20 19:00N 59°40' E 018°56'510.9
2019-Aug-20 18:30N 59°36' E 018°47'611.8
2019-Aug-20 18:00N 59°33' E 018°37'5 9.8
2019-Aug-20 17:30N 59°31' E 018°29'511.1
2019-Aug-20 17:00N 59°26' E 018°23'5 9.6
2019-Aug-20 16:30N 59°21' E 018°26'510.1
2019-Aug-20 16:00N 59°22' E 018°16'4 8.2
2019-Aug-20 15:30N 59°21' E 018°08'0 0.6
2019-Aug-20 14:58N 59°21' E 018°08'0 0.0
2019-Aug-20 14:28N 59°21' E 018°08'0 0.0
2019-Aug-20 13:58N 59°21' E 018°08'0 0.0
2019-Aug-20 13:28N 59°21' E 018°08'0 0.0
2019-Aug-20 12:58N 59°21' E 018°08'0 0.0
2019-Aug-20 12:28N 59°21' E 018°08'0 0.0
2019-Aug-20 11:58N 59°21' E 018°08'0 0.0
2019-Aug-20 11:25N 59°21' E 018°08'0 0.0
2019-Aug-20 10:58N 59°21' E 018°08'0 0.0
2019-Aug-20 10:28N 59°21' E 018°08'0 0.0
2019-Aug-20 09:58N 59°21' E 018°08'0 0.0
2019-Aug-20 09:28N 59°21' E 018°08'0 0.0
2019-Aug-20 08:58N 59°21' E 018°08'0 0.0
2019-Aug-20 08:28N 59°21' E 018°08'0 0.0
2019-Aug-20 07:58N 59°21' E 018°08'0 0.0
2019-Aug-20 07:28N 59°21' E 018°08'0 0.0
2019-Aug-20 06:58N 59°21' E 018°08'0 0.0
2019-Aug-20 06:28N 59°21' E 018°08'3 5.8
2019-Aug-20 06:00N 59°18' E 018°06'3138.4 200 / 101018.8 5.4 15.013.216.0
2019-Aug-20 05:58N 59°21' E 018°08'1 1.5
2019-Aug-20 05:30N 59°21' E 018°09'5 9.2
2019-Aug-20 05:00N 59°22' E 018°17'510.0
2019-Aug-20 04:31N 59°22' E 018°27'5 9.9
2019-Aug-20 04:00N 59°26' E 018°24'611.2
2019-Aug-20 03:30N 59°31' E 018°30'5 9.9
2019-Aug-20 03:00N 59°34' E 018°38'612.0
2019-Aug-20 02:30N 59°37' E 018°48'510.4
2019-Aug-20 02:00N 59°40' E 018°56'816.0
2019-Aug-20 01:30N 59°44' E 019°10'714.9
2019-Aug-20 01:00N 59°47' E 019°24'815.2
2019-Aug-20 00:30N 59°48' E 019°39'917.2
2019-Aug-20 00:00N 59°44' E 019°54'917.5
2019-Aug-19 23:30N 59°38' E 020°07'2217.7
2019-Aug-19 22:16N 59°35' E 020°49'518.1
2019-Aug-19 22:00N 59°34' E 020°58'918.2
2019-Aug-19 21:30N 59°32' E 021°16'918.2
2019-Aug-19 21:00N 59°31' E 021°34'184.4
2019-Aug-19 21:00N 59°30' E 021°36'816.0 220 / 231011.810.8 17.014.419.0
2019-Aug-19 20:30N 59°29' E 021°51'918.0
2019-Aug-19 20:00N 59°27' E 022°09'816.9
2019-Aug-19 19:30N 59°30' E 022°25'917.3
2019-Aug-19 19:00N 59°33' E 022°40'917.7
2019-Aug-19 18:30N 59°35' E 022°57'917.8
2019-Aug-19 18:00N 59°38' E 023°14'917.9
2019-Aug-19 17:30N 59°40' E 023°31'917.4
2019-Aug-19 17:00N 59°42' E 023°48'917.4
2019-Aug-19 16:30N 59°45' E 024°05'917.8
2019-Aug-19 16:00N 59°47' E 024°21'7422.9
2019-Aug-19 16:00N 59°42' E 024°12'1531.7 250 / 311013.7 5.4 16.012.418.0
2019-Aug-19 15:30N 59°50' E 024°38'917.8
2019-Aug-19 15:00N 59°57' E 024°48'612.5
2019-Aug-19 14:30N 60°03' E 024°54'611.5
2019-Aug-19 14:00N 60°09' E 024°55'0 0.3
2019-Aug-19 13:28N 60°09' E 024°55'0 0.0
2019-Aug-19 12:58N 60°09' E 024°55'0 0.0
2019-Aug-19 12:28N 60°09' E 024°55'0 0.0
2019-Aug-19 11:58N 60°09' E 024°55'0 0.0
2019-Aug-19 09:37N 60°09' E 024°55'0 0.0
2019-Aug-19 09:28N 60°09' E 024°55'0 0.0
2019-Aug-19 08:58N 60°09' E 024°55'0 0.0
2019-Aug-19 08:28N 60°09' E 024°55'0 0.0
2019-Aug-19 07:58N 60°09' E 024°55'0 0.0
2019-Aug-19 07:28N 60°09' E 024°55'0 0.0
2019-Aug-19 06:58N 60°09' E 024°55'0 0.0
2019-Aug-19 06:28N 60°09' E 024°55'0 0.0
2019-Aug-19 05:58N 60°09' E 024°55'0 0.0
2019-Aug-19 05:28N 60°09' E 024°55'3 6.1
2019-Aug-19 05:00N 60°06' E 024°54'3111.7 160 / 171009.8 5.4 17.013.517.0
2019-Aug-19 04:58N 60°09' E 024°55'0 0.0
2019-Aug-19 04:28N 60°09' E 024°55'0 0.0
2019-Aug-19 04:00N 60°09' E 024°55'1 1.1
2019-Aug-19 03:30N 60°09' E 024°54'713.1
2019-Aug-19 03:01N 60°02' E 024°55'611.0
2019-Aug-19 02:31N 59°57' E 024°56'611.8
2019-Aug-19 02:01N 59°52' E 025°05'816.2
2019-Aug-19 01:31N 59°54' E 025°21'816.2
2019-Aug-19 01:01N 59°55' E 025°37'156.7
2019-Aug-19 01:00N 59°54' E 025°36'918.1 170 / 281007.6 18.018.018.0
2019-Aug-19 00:30N 59°57' E 025°53'816.2
2019-Aug-19 00:00N 59°58' E 026°08'816.2
2019-Aug-18 23:31N 60°00' E 026°24'816.1
2019-Aug-18 23:01N 60°01' E 026°40'816.5
2019-Aug-18 22:30N 59°60' E 026°57'815.6
2019-Aug-18 22:01N 60°02' E 027°11'816.6
2019-Aug-18 21:31N 60°07' E 027°25'816.5
2019-Aug-18 21:00N 60°11' E 027°40'815.6
2019-Aug-18 20:31N 60°11' E 027°55'816.7
2019-Aug-18 20:01N 60°09' E 028°12'12723.3
2019-Aug-18 20:00N 60°06' E 027°48'1938.7 130 / 181011.910.8 18.014.618.0
2019-Aug-18 19:31N 60°05' E 028°25'816.2
2019-Aug-18 19:01N 60°03' E 028°41'816.5
2019-Aug-18 18:31N 60°02' E 028°58'916.8
2019-Aug-18 17:59N 60°02' E 029°15'713.6
2019-Aug-18 17:30N 60°02' E 029°29'611.8
2019-Aug-18 17:00N 59°60' E 029°40'5 9.5
2019-Aug-18 16:30N 59°58' E 029°48'510.7
2019-Aug-18 16:00N 59°56' E 029°58'5390.3
2019-Aug-18 16:00N 59°54' E 029°48'1020.6 060 / 121013.6 5.4 21.014.219.0
2019-Aug-18 15:30N 59°57' E 030°07'2 4.3
2019-Aug-18 15:00N 59°57' E 030°11'0 0.0
2019-Aug-18 14:29N 59°57' E 030°11'0 0.0
2019-Aug-18 13:59N 59°57' E 030°11'0 0.0
2019-Aug-18 13:29N 59°57' E 030°11'0 0.0
2019-Aug-18 12:59N 59°57' E 030°11'0 0.0
2019-Aug-18 12:29N 59°57' E 030°11'0 0.0
2019-Aug-18 11:59N 59°57' E 030°11'0 0.0
2019-Aug-18 11:29N 59°57' E 030°11'0 0.0
2019-Aug-18 10:59N 59°57' E 030°11'0 0.0
2019-Aug-18 10:29N 59°57' E 030°11'0 0.0
2019-Aug-18 09:59N 59°57' E 030°11'0 0.0
2019-Aug-18 09:29N 59°57' E 030°11'0 0.0
2019-Aug-18 08:59N 59°57' E 030°11'0 0.0
2019-Aug-18 08:29N 59°57' E 030°11'0 0.0
2019-Aug-18 07:59N 59°57' E 030°11'0 0.0
2019-Aug-18 06:59N 59°57' E 030°11'0 0.0
2019-Aug-18 06:29N 59°57' E 030°11'0 0.0
2019-Aug-18 05:59N 59°57' E 030°11'0 0.0
2019-Aug-18 05:29N 59°57' E 030°11'0 0.0
2019-Aug-18 04:59N 59°57' E 030°11'0 0.0
2019-Aug-18 04:29N 59°57' E 030°11'4 7.8
2019-Aug-18 04:00N 59°54' E 030°06'4576.6 180 / 31016.410.8 15.0 9.218.0
2019-Aug-18 03:59N 59°57' E 030°11'0 0.0
2019-Aug-18 03:29N 59°57' E 030°11'0 0.0
2019-Aug-18 02:59N 59°57' E 030°11'0 0.0
2019-Aug-18 02:29N 59°57' E 030°11'0 0.0
2019-Aug-18 01:59N 59°57' E 030°11'0 0.0
2019-Aug-18 01:29N 59°57' E 030°11'0 0.0
2019-Aug-18 00:59N 59°57' E 030°11'0 0.0
2019-Aug-18 00:29N 59°57' E 030°11'0 0.0
2019-Aug-17 23:59N 59°57' E 030°11'0 0.0
2019-Aug-17 23:29N 59°57' E 030°11'0 0.0
2019-Aug-17 22:59N 59°57' E 030°11'0 0.0
2019-Aug-17 22:29N 59°57' E 030°11'0 0.0
2019-Aug-17 21:59N 59°57' E 030°11'0 0.0
2019-Aug-17 21:29N 59°57' E 030°11'0 0.0
2019-Aug-17 20:59N 59°57' E 030°11'0 0.0
2019-Aug-17 20:29N 59°57' E 030°11'0 0.0
2019-Aug-17 19:59N 59°57' E 030°11'0 0.0
2019-Aug-17 19:29N 59°57' E 030°11'0 0.0
2019-Aug-17 18:59N 59°57' E 030°11'0 0.0
2019-Aug-17 18:29N 59°57' E 030°11'0 0.0
2019-Aug-17 17:29N 59°57' E 030°11'0 0.0
2019-Aug-17 16:59N 59°57' E 030°11'0 0.0
2019-Aug-17 16:29N 59°57' E 030°11'0 0.0
2019-Aug-17 15:59N 59°57' E 030°11'0 0.0
2019-Aug-17 15:29N 59°57' E 030°11'0 0.0
2019-Aug-17 14:59N 59°57' E 030°11'0 0.0
2019-Aug-17 14:29N 59°57' E 030°11'0 0.0
2019-Aug-17 13:59N 59°57' E 030°11'0 0.0
2019-Aug-17 13:29N 59°57' E 030°11'0 0.0
2019-Aug-17 12:59N 59°57' E 030°11'0 0.0
2019-Aug-17 12:29N 59°57' E 030°11'0 0.0
2019-Aug-17 11:59N 59°57' E 030°11'0 0.0
2019-Aug-17 11:29N 59°57' E 030°11'0 0.0
2019-Aug-17 10:59N 59°57' E 030°11'0 0.0
2019-Aug-17 10:29N 59°57' E 030°11'0 0.0
2019-Aug-17 09:59N 59°57' E 030°11'0 0.0
2019-Aug-17 09:29N 59°57' E 030°11'0 0.0
2019-Aug-17 08:59N 59°57' E 030°11'0 0.0
2019-Aug-17 08:29N 59°57' E 030°11'0 0.0
2019-Aug-17 07:59N 59°57' E 030°11'0 0.0
2019-Aug-17 07:29N 59°57' E 030°11'0 0.0
2019-Aug-17 06:59N 59°57' E 030°11'0 0.0
2019-Aug-17 06:29N 59°57' E 030°11'0 0.0
2019-Aug-17 05:59N 59°57' E 030°11'0 0.0
2019-Aug-17 05:29N 59°57' E 030°11'0 0.0
2019-Aug-17 04:59N 59°57' E 030°11'0 0.0
2019-Aug-17 04:29N 59°57' E 030°11'0 0.0
2019-Aug-17 03:59N 59°57' E 030°11'0 0.0
2019-Aug-17 03:30N 59°57' E 030°11'2 4.0
2019-Aug-17 03:00N 59°57' E 030°08'5 9.5
2019-Aug-17 02:30N 59°56' E 029°58'510.4
2019-Aug-17 02:00N 59°58' E 029°49'4 8.2
2019-Aug-17 01:30N 59°60' E 029°41'611.8
2019-Aug-17 00:58N 60°01' E 029°29'510.3
2019-Aug-17 00:30N 60°02' E 029°20'714.1
2019-Aug-17 00:00N 60°02' E 029°06'714.8
2019-Aug-16 23:31N 60°02' E 028°51'815.8
2019-Aug-16 23:00N 60°02' E 028°35'714.9
2019-Aug-16 22:31N 60°05' E 028°21'815.0
2019-Aug-16 22:00N 60°08' E 028°08'815.1
2019-Aug-16 21:30N 60°10' E 027°53'713.4
2019-Aug-16 21:01N 60°09' E 027°40'6338.4
2019-Aug-16 21:00N 60°06' E 027°30'1 2.9 1016.810.8 17.013.518.0
2019-Aug-16 20:30N 60°05' E 027°28'714.0
2019-Aug-16 20:00N 60°02' E 027°16'714.0
2019-Aug-16 19:30N 59°58' E 027°03'713.5
2019-Aug-16 19:00N 59°59' E 026°50'713.7
2019-Aug-16 18:30N 59°59' E 026°36'713.8
2019-Aug-16 18:00N 59°57' E 026°23'814.1
2019-Aug-16 17:28N 59°55' E 026°08'714.1
2019-Aug-16 17:00N 59°53' E 025°56'714.2
2019-Aug-16 16:31N 59°51' E 025°42'714.3
2019-Aug-16 16:00N 59°50' E 025°28'714.5
2019-Aug-16 15:30N 59°48' E 025°14'714.3
2019-Aug-16 15:00N 59°47' E 025°00'714.3
2019-Aug-16 14:31N 59°45' E 024°47'714.5
2019-Aug-16 14:00N 59°44' E 024°32'714.5
2019-Aug-16 13:30N 59°42' E 024°19'714.5
2019-Aug-16 13:00N 59°39' E 024°05'714.5
2019-Aug-16 12:31N 59°37' E 023°52'714.7
2019-Aug-16 12:00N 59°35' E 023°38'5334.5
2019-Aug-16 12:00N 59°30' E 023°42'1020.2 200 / 191014.8 18.016.315.0
2019-Aug-16 11:30N 59°33' E 023°24'714.7
2019-Aug-16 11:00N 59°31' E 023°10'714.4
2019-Aug-16 10:30N 59°29' E 022°56'714.4
2019-Aug-16 10:00N 59°27' E 022°43'714.3
2019-Aug-16 09:30N 59°23' E 022°30'714.6
2019-Aug-16 09:01N 59°19' E 022°19'10578.4
2019-Aug-16 09:00N 59°12' E 022°06'3 5.2 170 / 191014.810.8 17.013.518.0
2019-Aug-16 08:31N 59°14' E 022°08'714.7
2019-Aug-16 08:00N 59°10' E 021°57'714.8
2019-Aug-16 07:30N 59°05' E 021°45'1014.9
2019-Aug-16 06:51N 58°57' E 021°34'914.9
2019-Aug-16 06:15N 58°51' E 021°22'19015.4
2019-Aug-15 17:51N 56°24' E 017°36'617.9
2019-Aug-15 17:30N 56°20' E 017°27'917.9
2019-Aug-15 17:00N 56°14' E 017°14'917.7
2019-Aug-15 16:31N 56°09' E 017°02'917.4
2019-Aug-15 16:01N 56°04' E 016°49'4261.1
2019-Aug-15 16:00N 56°00' E 016°48'714.9 180 / 191012.7 5.4 19.015.619.0
2019-Aug-15 15:30N 55°60' E 016°35'917.8
2019-Aug-15 15:00N 55°55' E 016°22'918.0
2019-Aug-15 14:30N 55°50' E 016°08'917.9
2019-Aug-15 14:00N 55°45' E 015°55'918.1
2019-Aug-15 13:30N 55°40' E 015°41'918.1
2019-Aug-15 13:01N 55°36' E 015°27'918.2
2019-Aug-15 12:30N 55°32' E 015°13'918.3
2019-Aug-15 12:00N 55°28' E 014°58'1218.0
2019-Aug-15 11:19N 55°22' E 014°39'818.1
2019-Aug-15 10:52N 55°16' E 014°30'1318.2
2019-Aug-15 10:08N 55°06' E 014°15'4318.0
2019-Aug-15 07:44N 54°50' E 013°05'418.1
2019-Aug-15 07:30N 54°48' E 012°58'918.0
2019-Aug-15 07:01N 54°45' E 012°43'918.2
2019-Aug-15 06:30N 54°40' E 012°30'918.1
2019-Aug-15 06:00N 54°34' E 012°18'918.6
2019-Aug-15 05:30N 54°26' E 012°12'917.6
2019-Aug-15 05:00N 54°23' E 011°57'2169.8
2019-Aug-15 05:00N 54°24' E 011°54'714.7 190 / 201011.3 5.4 18.012.719.0
2019-Aug-15 04:31N 54°26' E 011°42'918.6
2019-Aug-15 04:00N 54°30' E 011°28'917.9
2019-Aug-15 03:31N 54°34' E 011°14'917.7
2019-Aug-15 03:01N 54°38' E 011°01'815.3
2019-Aug-15 02:30N 54°44' E 010°52'713.3
2019-Aug-15 02:00N 54°51' E 010°52'816.7
2019-Aug-15 01:31N 54°58' E 010°58'917.7
2019-Aug-15 01:01N 55°07' E 011°02'815.3
2019-Aug-15 00:30N 55°14' E 011°06'6412.2
2019-Aug-14 19:14N 56°10' E 011°59'416.9
2019-Aug-14 18:59N 56°11' E 012°06'816.1
2019-Aug-14 18:30N 56°12' E 012°20'816.0
2019-Aug-14 18:00N 56°07' E 012°32'815.1
2019-Aug-14 17:30N 56°01' E 012°41'815.1
2019-Aug-14 17:01N 55°54' E 012°39'2107.3
2019-Aug-14 17:00N 55°54' E 012°36'817.4 280 / 161012.7 5.4 18.010.619.0
2019-Aug-14 16:30N 55°46' E 012°42'510.5
2019-Aug-14 16:00N 55°42' E 012°36'0 0.6
2019-Aug-14 15:30N 55°42' E 012°36'0 0.0
2019-Aug-14 15:00N 55°42' E 012°36'0 0.0
2019-Aug-14 14:30N 55°42' E 012°36'0 0.0
2019-Aug-14 14:00N 55°42' E 012°36'0 0.0
2019-Aug-14 13:30N 55°42' E 012°36'0 0.0
2019-Aug-14 13:00N 55°42' E 012°36'0 0.0
2019-Aug-14 12:30N 55°42' E 012°36'0 0.0
2019-Aug-14 12:00N 55°42' E 012°36'0 0.0
2019-Aug-14 11:30N 55°42' E 012°36'0 0.0
2019-Aug-14 11:00N 55°42' E 012°36'0 0.0
2019-Aug-14 10:30N 55°42' E 012°36'0 0.0
2019-Aug-14 10:00N 55°42' E 012°36'0 0.0
2019-Aug-14 09:30N 55°42' E 012°36'0 0.0
2019-Aug-14 09:00N 55°42' E 012°36'0 0.0
2019-Aug-14 08:30N 55°42' E 012°36'0 0.0
2019-Aug-14 08:00N 55°42' E 012°36'0 0.0
2019-Aug-14 07:30N 55°42' E 012°36'0 0.0
2019-Aug-14 07:00N 55°42' E 012°36'  

Dump ship's entire track history